createdAt,value
2019-06-26T00:01:04.792Z,17.53
2019-06-26T00:03:33.310Z,21.17
2019-06-26T00:06:01.827Z,18.50
2019-06-26T00:08:30.350Z,18.47
2019-06-26T00:10:58.849Z,18.43
2019-06-26T00:13:27.361Z,18.10
2019-06-26T00:15:55.818Z,23.97
2019-06-26T00:18:24.401Z,18.27
2019-06-26T00:20:53.014Z,18.97
2019-06-26T00:23:21.523Z,22.43
2019-06-26T00:25:50.037Z,18.50
2019-06-26T00:28:18.538Z,16.87
2019-06-26T00:30:46.966Z,19.33
2019-06-26T00:33:15.550Z,19.73
2019-06-26T00:35:44.055Z,19.40
2019-06-26T00:38:12.570Z,16.03
2019-06-26T00:40:41.055Z,20.03
2019-06-26T00:43:09.582Z,16.87
2019-06-26T00:45:38.068Z,16.12
2019-06-26T00:48:06.582Z,16.00
2019-06-26T00:50:35.155Z,15.30
2019-06-26T00:53:03.682Z,15.17
2019-06-26T00:55:32.199Z,15.33
2019-06-26T00:58:00.707Z,15.70
2019-06-26T01:00:32.249Z,14.40
2019-06-26T01:03:00.756Z,14.27
2019-06-26T01:05:29.267Z,15.97
2019-06-26T01:07:57.784Z,16.50
2019-06-26T01:10:26.356Z,17.13
2019-06-26T01:12:54.859Z,16.03
2019-06-26T01:15:23.395Z,15.10
2019-06-26T01:17:51.885Z,16.53
2019-06-26T01:20:20.488Z,15.77
2019-06-26T01:22:48.988Z,18.43
2019-06-26T01:25:17.474Z,14.73
2019-06-26T01:27:46.008Z,15.60
2019-06-26T01:30:14.621Z,16.03
2019-06-26T01:32:43.183Z,16.30
2019-06-26T01:35:11.778Z,15.87
2019-06-26T01:37:40.316Z,15.70
2019-06-26T01:40:08.796Z,16.73
2019-06-26T01:42:37.378Z,16.03
2019-06-26T01:45:05.866Z,17.43
2019-06-26T01:47:34.481Z,15.60
2019-06-26T01:50:03.029Z,19.97
2019-06-26T01:52:31.514Z,15.20
2019-06-26T01:55:00.052Z,14.67
2019-06-26T01:57:28.662Z,15.40
2019-06-26T01:59:57.140Z,16.33
2019-06-26T02:02:25.661Z,16.17
2019-06-26T02:04:54.175Z,16.77
2019-06-26T02:07:22.680Z,15.70
2019-06-26T02:09:51.193Z,16.27
2019-06-26T02:12:19.634Z,15.67
2019-06-26T02:14:48.140Z,16.73
2019-06-26T02:17:16.537Z,16.30
2019-06-26T02:19:45.083Z,16.20
2019-06-26T02:22:13.599Z,16.93
2019-06-26T02:24:42.148Z,16.47
2019-06-26T02:27:10.628Z,15.93
2019-06-26T02:29:39.182Z,15.33
2019-06-26T02:32:07.736Z,15.67
2019-06-26T02:34:36.314Z,16.67
2019-06-26T02:37:04.849Z,16.73
2019-06-26T02:39:33.481Z,16.70
2019-06-26T02:42:02.048Z,17.30
2019-06-26T02:44:47.180Z,16.33
2019-06-26T02:47:18.210Z,18.60
2019-06-26T02:49:31.003Z,17.83
2019-06-26T02:51:59.507Z,17.23
2019-06-26T02:54:28.015Z,17.03
2019-06-26T02:56:56.590Z,16.77
2019-06-26T02:59:25.094Z,18.13
2019-06-26T03:01:53.598Z,18.63
2019-06-26T03:04:22.117Z,17.63
2019-06-26T03:06:50.632Z,16.60
2019-06-26T03:09:19.246Z,17.37
2019-06-26T03:11:47.754Z,17.03
2019-06-26T03:14:16.351Z,18.90
2019-06-26T03:16:44.910Z,18.77
2019-06-26T03:19:13.386Z,20.17
2019-06-26T03:21:41.851Z,19.73
2019-06-26T03:24:10.458Z,21.20
2019-06-26T03:26:38.944Z,20.00
2019-06-26T03:29:07.457Z,20.83
2019-06-26T03:31:35.980Z,20.73
2019-06-26T03:34:04.451Z,20.17
2019-06-26T03:36:32.977Z,20.20
2019-06-26T03:39:01.513Z,19.70
2019-06-26T03:41:30.081Z,19.97
2019-06-26T03:43:58.604Z,19.80
2019-06-26T03:46:27.055Z,21.47
2019-06-26T03:48:55.602Z,20.83
2019-06-26T03:51:24.083Z,20.87
2019-06-26T03:53:52.598Z,21.17
2019-06-26T03:56:21.104Z,23.83
2019-06-26T03:58:49.657Z,26.00
2019-06-26T04:01:18.143Z,28.80
2019-06-26T04:03:46.586Z,25.30
2019-06-26T04:06:15.178Z,25.00
2019-06-26T04:08:43.731Z,25.80
2019-06-26T04:11:12.233Z,27.20
2019-06-26T04:13:40.734Z,31.00
2019-06-26T04:16:09.253Z,35.23
2019-06-26T04:18:37.695Z,32.23
2019-06-26T04:21:06.229Z,29.20
2019-06-26T04:23:34.727Z,37.90
2019-06-26T04:26:03.273Z,35.07
2019-06-26T04:28:31.751Z,30.47
2019-06-26T04:31:00.257Z,32.70
2019-06-26T04:33:28.765Z,36.03
2019-06-26T04:35:57.221Z,35.97
2019-06-26T04:38:25.705Z,31.40
2019-06-26T04:40:54.225Z,31.70
2019-06-26T04:43:22.749Z,35.40
2019-06-26T04:45:58.191Z,33.60
2019-06-26T04:48:21.514Z,31.03
2019-06-26T04:50:50.042Z,28.40
2019-06-26T04:53:18.548Z,31.13
2019-06-26T04:55:47.058Z,34.00
2019-06-26T04:58:15.647Z,32.30
2019-06-26T05:00:44.141Z,36.50
2019-06-26T05:03:12.664Z,32.70
2019-06-26T05:05:44.372Z,33.87
2019-06-26T05:08:11.412Z,32.13
2019-06-26T05:10:40.505Z,36.27
2019-06-26T05:13:09.555Z,35.30
2019-06-26T05:15:38.661Z,38.60
2019-06-26T05:18:07.757Z,36.30
2019-06-26T05:23:52.951Z,37.83
2019-06-26T05:30:01.843Z,47.20
2019-06-26T05:32:30.884Z,40.30
2019-06-26T05:34:59.973Z,41.17
2019-06-26T05:37:28.944Z,38.93
2019-06-26T05:39:57.983Z,41.63
2019-06-26T05:42:27.039Z,41.33
2019-06-26T05:44:56.015Z,38.13
2019-06-26T05:47:25.083Z,46.97
2019-06-26T05:49:53.578Z,36.43
2019-06-26T05:52:22.090Z,37.80
2019-06-26T05:54:50.683Z,36.23
2019-06-26T05:57:19.543Z,38.43
2019-06-26T05:59:48.054Z,37.07
2019-06-26T06:02:16.714Z,35.70
2019-06-26T06:04:45.369Z,35.77
2019-06-26T06:07:13.947Z,36.17
2019-06-26T06:09:42.531Z,39.57
2019-06-26T06:12:11.090Z,37.00
2019-06-26T06:14:39.808Z,37.13
2019-06-26T06:17:08.326Z,35.00
2019-06-26T06:19:36.903Z,35.00
2019-06-26T06:22:05.529Z,35.17
2019-06-26T06:24:34.667Z,34.90
2019-06-26T06:27:03.269Z,32.77
2019-06-26T06:29:31.815Z,33.73
2019-06-26T06:32:00.376Z,34.77
2019-06-26T06:34:29.031Z,37.48
2019-06-26T06:36:57.619Z,34.10
2019-06-26T06:39:26.485Z,33.30
2019-06-26T06:41:55.238Z,34.90
2019-06-26T06:44:23.808Z,32.83
2019-06-26T06:47:03.337Z,37.20
2019-06-26T06:49:22.693Z,36.07
2019-06-26T06:51:51.360Z,32.98
2019-06-26T06:54:19.965Z,34.83
2019-06-26T06:56:48.697Z,34.18
2019-06-26T06:59:17.438Z,37.28
2019-06-26T07:01:46.044Z,31.68
2019-06-26T07:04:14.543Z,27.45
2019-06-26T07:06:43.104Z,28.70
2019-06-26T07:09:11.679Z,28.40
2019-06-26T07:11:40.265Z,28.40
2019-06-26T07:14:08.943Z,21.40
2019-06-26T07:16:37.503Z,26.93
2019-06-26T07:19:06.200Z,24.65
2019-06-26T07:21:34.766Z,24.27
2019-06-26T07:24:03.404Z,19.32
2019-06-26T07:26:32.053Z,20.27
2019-06-26T07:29:00.620Z,18.67
2019-06-26T07:31:29.184Z,19.90
2019-06-26T07:33:57.752Z,18.40
2019-06-26T07:36:26.539Z,17.00
2019-06-26T07:38:55.093Z,16.05
2019-06-26T07:41:23.717Z,17.85
2019-06-26T07:43:52.442Z,16.60
2019-06-26T07:46:21.056Z,18.62
2019-06-26T07:48:49.764Z,13.98
2019-06-26T07:51:18.421Z,22.37
2019-06-26T07:53:47.013Z,19.27
2019-06-26T07:56:28.935Z,20.77
2019-06-26T07:59:07.337Z,19.07
2019-06-26T08:01:55.325Z,21.37
2019-06-26T08:04:46.263Z,20.52
2019-06-26T08:07:48.172Z,24.47
2019-06-26T08:21:12.438Z,19.10
2019-06-26T08:30:47.582Z,14.45
2019-06-26T08:33:51.921Z,14.35
2019-06-26T08:38:24.477Z,18.45
2019-06-26T08:39:44.970Z,15.23
2019-06-26T08:42:33.320Z,16.57
2019-06-26T08:45:30.436Z,14.83
2019-06-26T08:48:38.831Z,14.75
2019-06-26T08:51:35.177Z,14.58
2019-06-26T09:01:13.204Z,12.93
2019-06-26T09:03:57.374Z,13.25
2019-06-26T09:07:05.376Z,12.75
2019-06-26T09:10:00.449Z,14.10
2019-06-26T09:16:04.879Z,12.95
2019-06-26T09:19:06.301Z,13.38
2019-06-26T09:21:52.270Z,14.65
2019-06-26T09:24:53.606Z,12.35
2019-06-26T09:27:58.348Z,12.93
2019-06-26T09:30:50.159Z,14.35
2019-06-26T09:34:02.916Z,12.07
2019-06-26T09:36:56.145Z,13.45
2019-06-26T09:39:53.286Z,13.95
2019-06-26T09:43:04.223Z,13.45
2019-06-26T09:46:04.679Z,14.65
2019-06-26T09:49:10.246Z,12.20
2019-06-26T09:51:43.574Z,11.97
2019-06-26T09:57:23.624Z,12.30
2019-06-26T10:00:37.763Z,13.48
2019-06-26T10:03:04.958Z,17.70
2019-06-26T10:05:44.115Z,12.40
2019-06-26T10:09:11.534Z,12.37
2019-06-26T10:12:16.249Z,12.18
2019-06-26T10:15:12.396Z,12.28
2019-06-26T10:21:28.563Z,12.00
2019-06-26T10:27:49.335Z,14.85
2019-06-26T10:30:43.202Z,13.80
2019-06-26T10:33:36.190Z,16.42
2019-06-26T10:36:10.277Z,17.55
2019-06-26T10:38:40.536Z,16.70
2019-06-26T10:41:09.962Z,16.07
2019-06-26T10:43:42.141Z,20.17
2019-06-26T10:46:13.217Z,16.53
2019-06-26T10:48:48.301Z,16.30
2019-06-26T10:51:18.508Z,16.20
2019-06-26T10:53:55.020Z,14.37
2019-06-26T10:56:28.699Z,15.77
2019-06-26T10:59:02.466Z,14.60
2019-06-26T11:01:38.551Z,17.70
2019-06-26T11:04:13.369Z,18.60
2019-06-26T11:06:47.300Z,24.47
2019-06-26T11:09:17.046Z,25.20
2019-06-26T11:12:00.645Z,22.20
2019-06-26T11:14:35.257Z,22.90
2019-06-26T11:17:10.480Z,22.50
2019-06-26T11:19:44.587Z,24.70
2019-06-26T11:22:23.912Z,20.12
2019-06-26T11:25:10.362Z,21.33
2019-06-26T11:27:47.915Z,25.83
2019-06-26T11:30:33.556Z,25.00
2019-06-26T11:33:11.176Z,23.80
2019-06-26T11:35:55.724Z,24.83
2019-06-26T11:38:28.706Z,30.83
2019-06-26T11:41:07.359Z,32.20
2019-06-26T11:43:43.353Z,29.80
2019-06-26T11:46:33.264Z,27.00
2019-06-26T11:49:07.462Z,24.10
2019-06-26T11:51:59.194Z,29.60
2019-06-26T11:55:01.423Z,24.93
2019-06-26T11:57:30.415Z,30.77
2019-06-26T12:00:19.272Z,30.47
2019-06-26T12:02:48.500Z,27.07
2019-06-26T12:05:29.732Z,29.07
2019-06-26T12:08:13.935Z,28.57
2019-06-26T12:10:46.727Z,31.57
2019-06-26T12:13:28.081Z,30.23
2019-06-26T12:16:19.955Z,31.10
2019-06-26T12:19:06.522Z,28.27
2019-06-26T12:21:50.112Z,32.97
2019-06-26T12:24:34.937Z,29.50
2019-06-26T12:27:16.291Z,31.10
2019-06-26T12:29:59.831Z,34.33
2019-06-26T12:32:42.135Z,32.27
2019-06-26T12:35:11.582Z,30.50
2019-06-26T12:37:51.471Z,33.23
2019-06-26T12:40:25.270Z,32.83
2019-06-26T12:42:56.354Z,42.43
2019-06-26T12:45:35.411Z,35.13
2019-06-26T12:48:06.731Z,33.13
2019-06-26T12:50:36.989Z,32.10
2019-06-26T12:53:07.361Z,30.43
2019-06-26T12:55:41.419Z,28.83
2019-06-26T12:58:16.249Z,30.95
2019-06-26T13:00:52.287Z,27.00
2019-06-26T13:03:35.384Z,31.97
2019-06-26T13:06:07.247Z,30.33
2019-06-26T13:08:36.456Z,27.33
2019-06-26T13:11:15.688Z,32.97
2019-06-26T13:14:01.911Z,30.83
2019-06-26T13:16:43.316Z,23.53
2019-06-26T13:19:19.544Z,29.20
2019-06-26T13:21:59.026Z,26.87
2019-06-26T13:24:23.952Z,24.33
2019-06-26T13:27:03.925Z,24.47
2019-06-26T13:29:51.371Z,24.00
2019-06-26T13:32:21.692Z,23.47
2019-06-26T13:35:00.367Z,20.27
2019-06-26T13:37:33.517Z,23.15
2019-06-26T13:40:18.403Z,20.10
2019-06-26T13:42:53.475Z,20.33
2019-06-26T13:45:24.465Z,21.65
2019-06-26T13:47:57.951Z,20.50
2019-06-26T13:50:27.166Z,17.97
2019-06-26T13:53:01.175Z,16.93
2019-06-26T13:55:37.738Z,15.63
2019-06-26T13:58:06.275Z,15.37
2019-06-26T14:00:35.070Z,19.57
2019-06-26T14:03:03.855Z,22.43
2019-06-26T14:05:32.511Z,20.10
2019-06-26T14:08:01.086Z,21.17
2019-06-26T14:10:29.787Z,20.60
2019-06-26T14:12:58.396Z,30.53
2019-06-26T14:15:27.178Z,27.70
2019-06-26T14:17:55.798Z,31.03
2019-06-26T14:20:24.587Z,24.37
2019-06-26T14:22:53.210Z,30.80
2019-06-26T14:25:21.860Z,31.30
2019-06-26T14:27:50.563Z,31.57
2019-06-26T14:30:19.339Z,36.93
2019-06-26T14:32:48.060Z,34.92
2019-06-26T14:35:16.724Z,29.80
2019-06-26T14:37:45.317Z,28.90
2019-06-26T14:40:14.143Z,33.63
2019-06-26T14:42:42.844Z,30.10
2019-06-26T14:45:11.679Z,32.20
2019-06-26T14:47:40.398Z,32.50
2019-06-26T14:50:09.374Z,29.47
2019-06-26T14:52:37.933Z,33.20
2019-06-26T14:55:07.108Z,29.90
2019-06-26T14:57:35.935Z,36.13
2019-06-26T15:00:06.537Z,28.67
2019-06-26T15:02:35.226Z,28.27
2019-06-26T15:05:06.278Z,26.07
2019-06-26T15:07:34.626Z,28.43
2019-06-26T15:10:03.403Z,24.67
2019-06-26T15:12:31.985Z,25.25
2019-06-26T15:15:00.609Z,22.60
2019-06-26T15:17:29.199Z,21.27
2019-06-26T15:19:57.772Z,22.95
2019-06-26T15:22:26.694Z,18.60
2019-06-26T15:24:55.321Z,18.87
2019-06-26T15:27:23.981Z,17.33
2019-06-26T15:29:52.661Z,20.00
2019-06-26T15:32:21.535Z,19.30
2019-06-26T15:34:50.127Z,20.80
2019-06-26T15:37:18.721Z,21.13
2019-06-26T15:39:47.468Z,16.00
2019-06-26T15:42:16.056Z,21.87
2019-06-26T15:44:44.637Z,24.60
2019-06-26T15:47:13.391Z,26.90
2019-06-26T15:49:42.879Z,22.77
2019-06-26T15:52:15.285Z,26.33
2019-06-26T15:54:42.126Z,21.03
2019-06-26T15:57:10.687Z,23.10
2019-06-26T15:59:39.357Z,22.37
2019-06-26T16:02:08.118Z,27.30
2019-06-26T16:04:37.088Z,23.77
2019-06-26T16:07:05.776Z,25.68
2019-06-26T16:09:34.338Z,23.53
2019-06-26T16:12:02.828Z,25.80
2019-06-26T16:14:31.360Z,27.70
2019-06-26T16:17:03.476Z,26.70
2019-06-26T16:19:31.977Z,21.90
2019-06-26T16:22:00.556Z,27.47
2019-06-26T16:24:30.264Z,31.90
2019-06-26T16:26:58.927Z,30.70
2019-06-26T16:29:27.510Z,28.67
2019-06-26T16:31:56.138Z,28.20
2019-06-26T16:34:24.630Z,28.33
2019-06-26T16:36:53.156Z,25.90
2019-06-26T16:39:23.438Z,24.10
2019-06-26T16:41:52.005Z,29.70
2019-06-26T16:44:21.139Z,21.47
2019-06-26T16:46:49.677Z,20.43
2019-06-26T16:49:18.211Z,23.53
2019-06-26T16:51:46.755Z,23.73
2019-06-26T16:54:15.357Z,22.15
2019-06-26T16:56:43.850Z,23.47
2019-06-26T16:59:12.434Z,26.60
2019-06-26T17:01:40.949Z,20.50
2019-06-26T17:04:09.507Z,21.43
2019-06-26T17:06:38.160Z,24.53
2019-06-26T17:09:07.094Z,24.57
2019-06-26T17:11:35.738Z,31.30
2019-06-26T17:14:04.471Z,23.53
2019-06-26T17:16:33.027Z,25.37
2019-06-26T17:19:01.541Z,23.00
2019-06-26T17:21:30.020Z,22.93
2019-06-26T17:23:58.558Z,25.23
2019-06-26T17:26:27.136Z,24.53
2019-06-26T17:28:55.681Z,23.20
2019-06-26T17:31:24.305Z,24.80
2019-06-26T17:33:52.947Z,23.50
2019-06-26T17:36:21.494Z,20.23
2019-06-26T17:38:49.994Z,24.30
2019-06-26T17:41:18.527Z,22.40
2019-06-26T17:43:47.114Z,24.30
2019-06-26T17:46:15.665Z,23.90
2019-06-26T17:48:44.463Z,23.30
2019-06-26T17:51:13.018Z,20.40
2019-06-26T17:53:41.511Z,20.07
2019-06-26T17:56:10.133Z,19.77
2019-06-26T17:58:38.624Z,19.23
2019-06-26T18:01:07.170Z,19.27
2019-06-26T18:03:35.711Z,20.30
2019-06-26T18:06:04.238Z,19.77
2019-06-26T18:08:32.756Z,17.63
2019-06-26T18:11:01.354Z,20.23
2019-06-26T18:13:30.190Z,17.37
2019-06-26T18:15:58.723Z,21.47
2019-06-26T18:18:27.290Z,20.43
2019-06-26T18:20:55.859Z,19.27
2019-06-26T18:23:37.039Z,17.80
2019-06-26T18:26:08.615Z,22.97
2019-06-26T18:28:25.059Z,17.73
2019-06-26T18:30:53.642Z,16.63
2019-06-26T18:33:22.216Z,17.53
2019-06-26T18:35:52.427Z,18.17
2019-06-26T18:38:21.608Z,19.57
2019-06-26T18:40:50.682Z,20.20
2019-06-26T18:43:19.821Z,18.07
2019-06-26T18:45:49.136Z,17.00
2019-06-26T18:48:24.822Z,19.43
2019-06-26T18:50:52.842Z,16.40
2019-06-26T18:53:21.970Z,17.67
2019-06-26T18:55:51.106Z,17.60
2019-06-26T18:58:19.635Z,18.37
2019-06-26T19:00:55.499Z,16.03
2019-06-26T19:03:24.738Z,19.90
2019-06-26T19:05:53.951Z,15.27
2019-06-26T19:08:22.962Z,19.40
2019-06-26T19:10:52.132Z,16.27
2019-06-26T19:13:21.264Z,17.00
2019-06-26T19:15:50.371Z,17.80
2019-06-26T19:18:20.364Z,14.07
2019-06-26T19:20:49.548Z,13.10
2019-06-26T19:23:18.702Z,14.27
2019-06-26T19:25:47.807Z,14.13
2019-06-26T19:28:23.010Z,14.93
2019-06-26T19:30:50.794Z,11.97
2019-06-26T19:33:19.857Z,11.93
2019-06-26T19:35:48.949Z,11.40
2019-06-26T19:38:18.083Z,9.07
2019-06-26T19:40:47.320Z,10.50
2019-06-26T19:43:16.926Z,10.33
2019-06-26T19:45:46.579Z,14.20
2019-06-26T19:48:15.794Z,15.30
2019-06-26T19:50:47.363Z,14.00
2019-06-26T19:53:16.531Z,10.33
2019-06-26T19:55:45.663Z,15.58
2019-06-26T19:58:14.870Z,14.17
2019-06-26T20:00:43.989Z,12.70
2019-06-26T20:03:13.233Z,11.83
2019-06-26T20:05:42.423Z,12.93
2019-06-26T20:08:11.640Z,16.73
2019-06-26T20:10:40.871Z,15.00
2019-06-26T20:13:10.208Z,15.67
2019-06-26T20:15:45.621Z,11.10
2019-06-26T20:18:16.135Z,12.33
2019-06-26T20:20:45.387Z,13.60
2019-06-26T20:23:14.575Z,13.87
2019-06-26T20:25:43.679Z,12.80
2019-06-26T20:28:12.909Z,13.57
2019-06-26T20:30:42.154Z,13.73
2019-06-26T20:33:11.282Z,14.17
2019-06-26T20:35:40.459Z,11.33
2019-06-26T20:38:09.751Z,16.20
2019-06-26T20:40:38.887Z,11.93
2019-06-26T20:43:08.123Z,11.50
2019-06-26T20:45:37.319Z,12.37
2019-06-26T20:48:06.497Z,13.87
2019-06-26T20:50:35.690Z,14.55
2019-06-26T20:53:04.927Z,12.10
2019-06-26T20:55:34.093Z,11.87
2019-06-26T20:58:03.279Z,14.17
2019-06-26T21:00:32.509Z,11.30
2019-06-26T21:03:01.896Z,14.67
2019-06-26T21:05:41.801Z,13.57
2019-06-26T21:08:11.384Z,12.50
2019-06-26T21:10:41.355Z,15.63
2019-06-26T21:13:10.647Z,12.10
2019-06-26T21:15:39.945Z,11.03
2019-06-26T21:18:09.196Z,12.83
2019-06-26T21:20:38.329Z,16.10
2019-06-26T21:23:18.024Z,12.47
2019-06-26T21:25:38.769Z,11.87
2019-06-26T21:28:08.029Z,14.50
2019-06-26T21:30:37.206Z,13.27
2019-06-26T21:33:06.292Z,12.13
2019-06-26T21:35:35.464Z,14.57
2019-06-26T21:38:05.141Z,10.00
2019-06-26T21:40:34.193Z,12.15
2019-06-26T21:43:03.415Z,12.27
2019-06-26T21:45:32.553Z,10.57
2019-06-26T21:48:01.576Z,9.63
2019-06-26T21:50:30.661Z,9.93
2019-06-26T21:52:59.623Z,10.33
2019-06-26T21:55:34.401Z,12.47
2019-06-26T21:57:59.102Z,14.43
2019-06-26T22:00:30.336Z,10.30
2019-06-26T22:02:58.947Z,10.40
2019-06-26T22:05:27.852Z,14.33
2019-06-26T22:07:56.369Z,12.20
2019-06-26T22:10:25.099Z,12.80
2019-06-26T22:12:53.714Z,10.40
2019-06-26T22:15:22.373Z,9.10
2019-06-26T22:17:50.927Z,9.73
2019-06-26T22:20:20.208Z,9.00
2019-06-26T22:22:49.324Z,8.23
2019-06-26T22:25:18.533Z,9.03
2019-06-26T22:27:47.642Z,8.30
2019-06-26T22:30:17.662Z,7.70
2019-06-26T22:32:46.711Z,7.13
2019-06-26T22:35:15.849Z,9.20
2019-06-26T22:37:44.937Z,9.70
2019-06-26T22:40:14.221Z,13.83
2019-06-26T22:42:43.399Z,7.37
2019-06-26T22:45:13.228Z,9.00
2019-06-26T22:47:42.427Z,7.03
2019-06-26T22:50:11.207Z,7.90
2019-06-26T22:52:39.719Z,7.67
2019-06-26T22:55:08.204Z,12.20
2019-06-26T22:57:36.767Z,7.40
2019-06-26T23:00:05.702Z,10.33
2019-06-26T23:02:34.227Z,8.40
2019-06-26T23:05:03.045Z,12.90
2019-06-26T23:07:31.559Z,9.10
2019-06-26T23:10:00.076Z,9.63
2019-06-26T23:12:28.582Z,8.30
2019-06-26T23:14:57.190Z,10.17
2019-06-26T23:17:25.674Z,9.30
2019-06-26T23:19:54.187Z,6.23
2019-06-26T23:22:22.693Z,8.10
2019-06-26T23:24:51.274Z,10.23
2019-06-26T23:27:19.764Z,7.43
2019-06-26T23:29:48.281Z,8.13
2019-06-26T23:32:16.925Z,11.60
2019-06-26T23:34:45.531Z,12.23
2019-06-26T23:37:14.000Z,5.73
2019-06-26T23:39:42.511Z,7.30
2019-06-26T23:42:11.028Z,11.30
2019-06-26T23:44:39.529Z,9.57
2019-06-26T23:47:08.021Z,8.30
2019-06-26T23:49:36.545Z,11.53
2019-06-26T23:52:05.048Z,7.23
2019-06-26T23:54:33.532Z,9.37
2019-06-26T23:57:02.049Z,9.10
2019-06-26T23:59:30.509Z,10.93
